sensor_id;sensor_type;location;lat;lon;timestamp;P1;durP1;ratioP1;P2;durP2;ratioP2
11504;SDS011;5809;53.262;10.408;2023-12-14T00:01:39;12.23;;;7.50;;
11504;SDS011;5809;53.262;10.408;2023-12-14T00:04:06;11.13;;;7.27;;
11504;SDS011;5809;53.262;10.408;2023-12-14T00:06:34;11.03;;;7.23;;
11504;SDS011;5809;53.262;10.408;2023-12-14T00:09:01;11.63;;;7.40;;
11504;SDS011;5809;53.262;10.408;2023-12-14T00:11:28;11.73;;;6.93;;
11504;SDS011;5809;53.262;10.408;2023-12-14T00:13:55;11.03;;;7.00;;
11504;SDS011;5809;53.262;10.408;2023-12-14T00:16:22;11.97;;;6.80;;
11504;SDS011;5809;53.262;10.408;2023-12-14T00:18:49;9.90;;;7.10;;
11504;SDS011;5809;53.262;10.408;2023-12-14T00:21:16;10.30;;;7.10;;
11504;SDS011;5809;53.262;10.408;2023-12-14T00:23:44;10.70;;;6.77;;
11504;SDS011;5809;53.262;10.408;2023-12-14T00:26:11;11.13;;;7.40;;
11504;SDS011;5809;53.262;10.408;2023-12-14T00:28:38;10.10;;;6.37;;
11504;SDS011;5809;53.262;10.408;2023-12-14T00:31:04;9.37;;;6.43;;
11504;SDS011;5809;53.262;10.408;2023-12-14T00:33:31;9.53;;;7.00;;
11504;SDS011;5809;53.262;10.408;2023-12-14T00:35:58;10.70;;;6.07;;
11504;SDS011;5809;53.262;10.408;2023-12-14T00:38:25;8.33;;;6.20;;
11504;SDS011;5809;53.262;10.408;2023-12-14T00:40:53;12.03;;;6.27;;
11504;SDS011;5809;53.262;10.408;2023-12-14T00:43:20;8.03;;;6.00;;
11504;SDS011;5809;53.262;10.408;2023-12-14T00:45:47;10.33;;;6.30;;
11504;SDS011;5809;53.262;10.408;2023-12-14T00:48:14;8.97;;;5.70;;
11504;SDS011;5809;53.262;10.408;2023-12-14T00:50:41;7.60;;;5.80;;
11504;SDS011;5809;53.262;10.408;2023-12-14T00:53:08;11.67;;;6.30;;
11504;SDS011;5809;53.262;10.408;2023-12-14T00:55:35;9.63;;;6.13;;
11504;SDS011;5809;53.262;10.408;2023-12-14T00:58:03;10.23;;;6.70;;
11504;SDS011;5809;53.262;10.408;2023-12-14T01:00:30;10.53;;;5.87;;
11504;SDS011;5809;53.262;10.408;2023-12-14T01:02:57;10.07;;;6.00;;
11504;SDS011;5809;53.262;10.408;2023-12-14T01:05:24;9.83;;;6.43;;
11504;SDS011;5809;53.262;10.408;2023-12-14T01:07:50;11.70;;;6.57;;
11504;SDS011;5809;53.262;10.408;2023-12-14T01:10:17;10.00;;;6.27;;
11504;SDS011;5809;53.262;10.408;2023-12-14T01:12:44;11.27;;;6.00;;
11504;SDS011;5809;53.262;10.408;2023-12-14T01:15:12;13.10;;;5.90;;
11504;SDS011;5809;53.262;10.408;2023-12-14T01:17:39;9.70;;;5.63;;
11504;SDS011;5809;53.262;10.408;2023-12-14T01:20:07;8.97;;;5.97;;
11504;SDS011;5809;53.262;10.408;2023-12-14T01:22:34;11.43;;;6.30;;
11504;SDS011;5809;53.262;10.408;2023-12-14T01:25:01;9.57;;;5.97;;
11504;SDS011;5809;53.262;10.408;2023-12-14T01:27:28;8.47;;;6.07;;
11504;SDS011;5809;53.262;10.408;2023-12-14T01:29:55;11.77;;;5.93;;
11504;SDS011;5809;53.262;10.408;2023-12-14T01:32:23;7.67;;;5.57;;
11504;SDS011;5809;53.262;10.408;2023-12-14T01:34:49;9.47;;;5.97;;
11504;SDS011;5809;53.262;10.408;2023-12-14T01:37:17;8.67;;;5.97;;
11504;SDS011;5809;53.262;10.408;2023-12-14T01:39:43;10.23;;;5.53;;
11504;SDS011;5809;53.262;10.408;2023-12-14T01:42:10;8.90;;;5.40;;
11504;SDS011;5809;53.262;10.408;2023-12-14T01:44:38;8.13;;;5.20;;
11504;SDS011;5809;53.262;10.408;2023-12-14T01:47:05;9.10;;;5.20;;
11504;SDS011;5809;53.262;10.408;2023-12-14T01:49:33;7.53;;;4.43;;
11504;SDS011;5809;53.262;10.408;2023-12-14T01:52:00;9.30;;;5.23;;
11504;SDS011;5809;53.262;10.408;2023-12-14T01:54:27;10.00;;;4.87;;
11504;SDS011;5809;53.262;10.408;2023-12-14T01:56:54;8.00;;;5.40;;
11504;SDS011;5809;53.262;10.408;2023-12-14T01:59:20;7.53;;;4.93;;
11504;SDS011;5809;53.262;10.408;2023-12-14T02:01:52;7.93;;;4.90;;
11504;SDS011;5809;53.262;10.408;2023-12-14T02:04:22;7.87;;;5.30;;
11504;SDS011;5809;53.262;10.408;2023-12-14T02:06:51;9.97;;;5.27;;
11504;SDS011;5809;53.262;10.408;2023-12-14T02:09:18;8.63;;;5.50;;
11504;SDS011;5809;53.262;10.408;2023-12-14T02:11:45;8.87;;;5.33;;
11504;SDS011;5809;53.262;10.408;2023-12-14T02:14:12;6.57;;;4.97;;
11504;SDS011;5809;53.262;10.408;2023-12-14T02:16:39;8.13;;;4.87;;
11504;SDS011;5809;53.262;10.408;2023-12-14T02:19:06;8.40;;;5.00;;
11504;SDS011;5809;53.262;10.408;2023-12-14T02:21:33;8.00;;;5.43;;
11504;SDS011;5809;53.262;10.408;2023-12-14T02:24:01;9.70;;;5.07;;
11504;SDS011;5809;53.262;10.408;2023-12-14T02:26:28;8.53;;;5.20;;
11504;SDS011;5809;53.262;10.408;2023-12-14T02:28:55;8.37;;;5.20;;
11504;SDS011;5809;53.262;10.408;2023-12-14T02:31:22;7.47;;;5.03;;
11504;SDS011;5809;53.262;10.408;2023-12-14T02:33:49;8.23;;;5.03;;
11504;SDS011;5809;53.262;10.408;2023-12-14T02:36:16;8.70;;;5.20;;
11504;SDS011;5809;53.262;10.408;2023-12-14T02:38:43;7.67;;;5.13;;
11504;SDS011;5809;53.262;10.408;2023-12-14T02:41:11;8.57;;;5.27;;
11504;SDS011;5809;53.262;10.408;2023-12-14T02:43:38;8.17;;;5.23;;
11504;SDS011;5809;53.262;10.408;2023-12-14T02:46:05;8.03;;;5.03;;
11504;SDS011;5809;53.262;10.408;2023-12-14T02:48:32;7.17;;;4.97;;
11504;SDS011;5809;53.262;10.408;2023-12-14T02:50:59;6.67;;;4.90;;
11504;SDS011;5809;53.262;10.408;2023-12-14T02:53:26;8.47;;;5.10;;
11504;SDS011;5809;53.262;10.408;2023-12-14T02:55:53;9.93;;;5.23;;
11504;SDS011;5809;53.262;10.408;2023-12-14T02:58:22;7.17;;;4.67;;
11504;SDS011;5809;53.262;10.408;2023-12-14T03:00:49;7.60;;;5.40;;
11504;SDS011;5809;53.262;10.408;2023-12-14T03:03:16;6.17;;;4.93;;
11504;SDS011;5809;53.262;10.408;2023-12-14T03:05:43;7.13;;;4.80;;
11504;SDS011;5809;53.262;10.408;2023-12-14T03:08:09;6.73;;;4.87;;
11504;SDS011;5809;53.262;10.408;2023-12-14T03:10:36;6.83;;;5.00;;
11504;SDS011;5809;53.262;10.408;2023-12-14T03:13:03;6.83;;;4.57;;
11504;SDS011;5809;53.262;10.408;2023-12-14T03:15:31;8.30;;;4.87;;
11504;SDS011;5809;53.262;10.408;2023-12-14T03:17:58;6.77;;;4.50;;
11504;SDS011;5809;53.262;10.408;2023-12-14T03:20:25;7.50;;;4.43;;
11504;SDS011;5809;53.262;10.408;2023-12-14T03:22:51;6.47;;;3.97;;
11504;SDS011;5809;53.262;10.408;2023-12-14T03:25:18;7.87;;;4.60;;
11504;SDS011;5809;53.262;10.408;2023-12-14T03:27:45;4.40;;;3.67;;
11504;SDS011;5809;53.262;10.408;2023-12-14T03:30:12;6.27;;;3.87;;
11504;SDS011;5809;53.262;10.408;2023-12-14T03:35:16;5.17;;;3.50;;
11504;SDS011;5809;53.262;10.408;2023-12-14T03:37:43;5.53;;;3.50;;
11504;SDS011;5809;53.262;10.408;2023-12-14T03:40:10;4.43;;;3.33;;
11504;SDS011;5809;53.262;10.408;2023-12-14T03:42:37;5.83;;;3.97;;
11504;SDS011;5809;53.262;10.408;2023-12-14T03:45:04;5.53;;;3.40;;
11504;SDS011;5809;53.262;10.408;2023-12-14T03:47:32;5.20;;;3.40;;
11504;SDS011;5809;53.262;10.408;2023-12-14T03:50:00;5.63;;;3.73;;
11504;SDS011;5809;53.262;10.408;2023-12-14T03:52:27;3.80;;;3.10;;
11504;SDS011;5809;53.262;10.408;2023-12-14T03:54:56;4.07;;;3.30;;
11504;SDS011;5809;53.262;10.408;2023-12-14T03:57:23;4.57;;;3.40;;
11504;SDS011;5809;53.262;10.408;2023-12-14T03:59:50;4.93;;;3.37;;
11504;SDS011;5809;53.262;10.408;2023-12-14T04:02:17;5.00;;;3.43;;
11504;SDS011;5809;53.262;10.408;2023-12-14T04:04:43;5.00;;;3.27;;
11504;SDS011;5809;53.262;10.408;2023-12-14T04:07:13;4.20;;;3.30;;
11504;SDS011;5809;53.262;10.408;2023-12-14T04:09:40;4.43;;;2.80;;
11504;SDS011;5809;53.262;10.408;2023-12-14T04:12:07;4.53;;;3.27;;
11504;SDS011;5809;53.262;10.408;2023-12-14T04:14:34;6.00;;;3.17;;
11504;SDS011;5809;53.262;10.408;2023-12-14T04:17:00;4.23;;;2.97;;
11504;SDS011;5809;53.262;10.408;2023-12-14T04:19:27;3.77;;;3.00;;
11504;SDS011;5809;53.262;10.408;2023-12-14T04:21:54;5.17;;;3.30;;
11504;SDS011;5809;53.262;10.408;2023-12-14T04:24:22;4.30;;;3.30;;
11504;SDS011;5809;53.262;10.408;2023-12-14T04:26:49;6.23;;;3.47;;
11504;SDS011;5809;53.262;10.408;2023-12-14T04:29:16;4.87;;;3.20;;
11504;SDS011;5809;53.262;10.408;2023-12-14T04:31:43;3.77;;;3.10;;
11504;SDS011;5809;53.262;10.408;2023-12-14T04:34:09;5.97;;;3.43;;
11504;SDS011;5809;53.262;10.408;2023-12-14T04:36:40;3.77;;;3.23;;
11504;SDS011;5809;53.262;10.408;2023-12-14T04:39:07;3.90;;;2.70;;
11504;SDS011;5809;53.262;10.408;2023-12-14T04:41:35;4.43;;;3.10;;
11504;SDS011;5809;53.262;10.408;2023-12-14T04:44:02;4.10;;;3.17;;
11504;SDS011;5809;53.262;10.408;2023-12-14T04:46:29;4.10;;;3.63;;
11504;SDS011;5809;53.262;10.408;2023-12-14T04:48:56;5.13;;;4.00;;
11504;SDS011;5809;53.262;10.408;2023-12-14T04:51:23;5.60;;;3.50;;
11504;SDS011;5809;53.262;10.408;2023-12-14T04:53:50;5.53;;;3.40;;
11504;SDS011;5809;53.262;10.408;2023-12-14T04:56:17;4.87;;;3.87;;
11504;SDS011;5809;53.262;10.408;2023-12-14T04:58:45;5.60;;;3.80;;
11504;SDS011;5809;53.262;10.408;2023-12-14T05:01:12;5.63;;;3.90;;
11504;SDS011;5809;53.262;10.408;2023-12-14T05:03:39;4.23;;;3.70;;
11504;SDS011;5809;53.262;10.408;2023-12-14T05:06:06;7.13;;;4.07;;
11504;SDS011;5809;53.262;10.408;2023-12-14T05:08:33;5.17;;;4.10;;
11504;SDS011;5809;53.262;10.408;2023-12-14T05:11:00;5.13;;;3.67;;
11504;SDS011;5809;53.262;10.408;2023-12-14T05:13:28;6.80;;;4.03;;
11504;SDS011;5809;53.262;10.408;2023-12-14T05:15:56;5.10;;;4.17;;
11504;SDS011;5809;53.262;10.408;2023-12-14T05:18:23;6.90;;;4.57;;
11504;SDS011;5809;53.262;10.408;2023-12-14T05:20:50;5.73;;;4.40;;
11504;SDS011;5809;53.262;10.408;2023-12-14T05:23:17;6.07;;;4.63;;
11504;SDS011;5809;53.262;10.408;2023-12-14T05:25:44;5.30;;;4.30;;
11504;SDS011;5809;53.262;10.408;2023-12-14T05:28:11;8.93;;;4.33;;
11504;SDS011;5809;53.262;10.408;2023-12-14T05:30:38;5.33;;;4.60;;
11504;SDS011;5809;53.262;10.408;2023-12-14T05:33:06;6.53;;;4.50;;
11504;SDS011;5809;53.262;10.408;2023-12-14T05:35:33;5.27;;;4.20;;
11504;SDS011;5809;53.262;10.408;2023-12-14T05:38:00;4.83;;;4.20;;
11504;SDS011;5809;53.262;10.408;2023-12-14T05:40:27;5.43;;;4.33;;
11504;SDS011;5809;53.262;10.408;2023-12-14T05:42:54;6.83;;;4.80;;
11504;SDS011;5809;53.262;10.408;2023-12-14T05:45:21;6.80;;;4.40;;
11504;SDS011;5809;53.262;10.408;2023-12-14T05:47:48;5.23;;;4.60;;
11504;SDS011;5809;53.262;10.408;2023-12-14T05:50:17;7.80;;;4.47;;
11504;SDS011;5809;53.262;10.408;2023-12-14T05:52:44;5.60;;;4.20;;
11504;SDS011;5809;53.262;10.408;2023-12-14T05:55:11;9.20;;;4.63;;
11504;SDS011;5809;53.262;10.408;2023-12-14T05:57:38;7.00;;;5.03;;
11504;SDS011;5809;53.262;10.408;2023-12-14T06:00:05;7.17;;;5.23;;
11504;SDS011;5809;53.262;10.408;2023-12-14T06:02:33;7.27;;;5.73;;
11504;SDS011;5809;53.262;10.408;2023-12-14T06:05:02;7.50;;;5.43;;
11504;SDS011;5809;53.262;10.408;2023-12-14T06:07:30;8.57;;;5.67;;
11504;SDS011;5809;53.262;10.408;2023-12-14T06:09:57;10.07;;;5.43;;
11504;SDS011;5809;53.262;10.408;2023-12-14T06:12:24;8.13;;;5.70;;
11504;SDS011;5809;53.262;10.408;2023-12-14T06:14:50;8.17;;;5.40;;
11504;SDS011;5809;53.262;10.408;2023-12-14T06:17:17;9.93;;;5.87;;
11504;SDS011;5809;53.262;10.408;2023-12-14T06:19:44;11.13;;;5.77;;
11504;SDS011;5809;53.262;10.408;2023-12-14T06:22:11;9.37;;;5.83;;
11504;SDS011;5809;53.262;10.408;2023-12-14T06:24:39;10.53;;;6.43;;
11504;SDS011;5809;53.262;10.408;2023-12-14T06:27:06;8.20;;;6.37;;
11504;SDS011;5809;53.262;10.408;2023-12-14T06:29:33;8.87;;;6.23;;
11504;SDS011;5809;53.262;10.408;2023-12-14T06:32:00;10.00;;;7.07;;
11504;SDS011;5809;53.262;10.408;2023-12-14T06:34:27;12.93;;;7.17;;
11504;SDS011;5809;53.262;10.408;2023-12-14T06:36:53;12.53;;;6.90;;
11504;SDS011;5809;53.262;10.408;2023-12-14T06:39:23;10.07;;;7.10;;
11504;SDS011;5809;53.262;10.408;2023-12-14T06:41:53;10.13;;;6.87;;
11504;SDS011;5809;53.262;10.408;2023-12-14T06:44:20;9.97;;;6.47;;
11504;SDS011;5809;53.262;10.408;2023-12-14T06:46:46;11.93;;;6.90;;
11504;SDS011;5809;53.262;10.408;2023-12-14T06:49:13;8.47;;;6.73;;
11504;SDS011;5809;53.262;10.408;2023-12-14T06:51:40;9.83;;;6.47;;
11504;SDS011;5809;53.262;10.408;2023-12-14T06:54:07;10.87;;;6.50;;
11504;SDS011;5809;53.262;10.408;2023-12-14T06:56:35;10.97;;;6.73;;
11504;SDS011;5809;53.262;10.408;2023-12-14T06:59:04;10.60;;;6.10;;
11504;SDS011;5809;53.262;10.408;2023-12-14T07:01:31;8.23;;;6.30;;
11504;SDS011;5809;53.262;10.408;2023-12-14T07:03:57;10.23;;;7.07;;
11504;SDS011;5809;53.262;10.408;2023-12-14T07:06:24;9.60;;;6.70;;
11504;SDS011;5809;53.262;10.408;2023-12-14T07:08:51;9.97;;;7.00;;
11504;SDS011;5809;53.262;10.408;2023-12-14T07:11:18;10.33;;;6.40;;
11504;SDS011;5809;53.262;10.408;2023-12-14T07:13:45;9.43;;;7.07;;
11504;SDS011;5809;53.262;10.408;2023-12-14T07:16:13;10.77;;;7.37;;
11504;SDS011;5809;53.262;10.408;2023-12-14T07:18:42;8.63;;;6.73;;
11504;SDS011;5809;53.262;10.408;2023-12-14T07:21:10;12.53;;;6.63;;
11504;SDS011;5809;53.262;10.408;2023-12-14T07:23:36;11.33;;;6.47;;
11504;SDS011;5809;53.262;10.408;2023-12-14T07:26:04;14.13;;;6.70;;
11504;SDS011;5809;53.262;10.408;2023-12-14T07:28:31;8.63;;;6.70;;
11504;SDS011;5809;53.262;10.408;2023-12-14T07:30:57;9.43;;;6.80;;
11504;SDS011;5809;53.262;10.408;2023-12-14T07:33:26;11.20;;;6.40;;
11504;SDS011;5809;53.262;10.408;2023-12-14T07:35:52;9.87;;;6.50;;
11504;SDS011;5809;53.262;10.408;2023-12-14T07:38:19;9.23;;;7.03;;
11504;SDS011;5809;53.262;10.408;2023-12-14T07:40:46;10.57;;;6.97;;
11504;SDS011;5809;53.262;10.408;2023-12-14T07:43:15;8.07;;;6.57;;
11504;SDS011;5809;53.262;10.408;2023-12-14T07:45:42;9.50;;;6.60;;
11504;SDS011;5809;53.262;10.408;2023-12-14T07:48:08;11.30;;;7.43;;
11504;SDS011;5809;53.262;10.408;2023-12-14T07:50:36;10.23;;;6.43;;
11504;SDS011;5809;53.262;10.408;2023-12-14T07:53:03;10.83;;;7.17;;
11504;SDS011;5809;53.262;10.408;2023-12-14T07:55:30;10.80;;;6.93;;
11504;SDS011;5809;53.262;10.408;2023-12-14T07:57:57;13.10;;;6.83;;
11504;SDS011;5809;53.262;10.408;2023-12-14T08:00:24;11.07;;;6.80;;
11504;SDS011;5809;53.262;10.408;2023-12-14T08:02:51;10.17;;;7.50;;
11504;SDS011;5809;53.262;10.408;2023-12-14T08:05:18;10.43;;;7.07;;
11504;SDS011;5809;53.262;10.408;2023-12-14T08:07:46;10.73;;;7.30;;
11504;SDS011;5809;53.262;10.408;2023-12-14T08:10:13;8.70;;;6.83;;
11504;SDS011;5809;53.262;10.408;2023-12-14T08:12:40;8.17;;;6.17;;
11504;SDS011;5809;53.262;10.408;2023-12-14T08:15:07;7.97;;;6.07;;
11504;SDS011;5809;53.262;10.408;2023-12-14T08:17:35;9.57;;;6.67;;
11504;SDS011;5809;53.262;10.408;2023-12-14T08:20:02;9.27;;;6.37;;
11504;SDS011;5809;53.262;10.408;2023-12-14T08:22:33;9.50;;;6.47;;
11504;SDS011;5809;53.262;10.408;2023-12-14T08:25:02;10.90;;;6.87;;
11504;SDS011;5809;53.262;10.408;2023-12-14T08:27:29;11.33;;;7.53;;
11504;SDS011;5809;53.262;10.408;2023-12-14T08:29:56;11.93;;;7.37;;
11504;SDS011;5809;53.262;10.408;2023-12-14T08:32:23;12.77;;;7.40;;
11504;SDS011;5809;53.262;10.408;2023-12-14T08:34:50;13.13;;;8.23;;
11504;SDS011;5809;53.262;10.408;2023-12-14T08:37:17;15.03;;;8.30;;
11504;SDS011;5809;53.262;10.408;2023-12-14T08:39:45;11.90;;;8.33;;
11504;SDS011;5809;53.262;10.408;2023-12-14T08:42:13;13.37;;;7.97;;
11504;SDS011;5809;53.262;10.408;2023-12-14T08:44:40;12.43;;;7.53;;
11504;SDS011;5809;53.262;10.408;2023-12-14T08:47:07;13.03;;;8.20;;
11504;SDS011;5809;53.262;10.408;2023-12-14T08:49:34;12.73;;;7.63;;
11504;SDS011;5809;53.262;10.408;2023-12-14T08:52:01;10.33;;;7.33;;
11504;SDS011;5809;53.262;10.408;2023-12-14T08:54:29;10.37;;;7.53;;
11504;SDS011;5809;53.262;10.408;2023-12-14T08:56:56;12.83;;;8.60;;
11504;SDS011;5809;53.262;10.408;2023-12-14T08:59:25;13.07;;;8.67;;
11504;SDS011;5809;53.262;10.408;2023-12-14T09:01:52;15.10;;;8.27;;
11504;SDS011;5809;53.262;10.408;2023-12-14T09:04:19;11.43;;;8.43;;
11504;SDS011;5809;53.262;10.408;2023-12-14T09:06:47;10.20;;;7.90;;
11504;SDS011;5809;53.262;10.408;2023-12-14T09:09:13;12.07;;;8.20;;
11504;SDS011;5809;53.262;10.408;2023-12-14T09:11:40;10.87;;;8.00;;
11504;SDS011;5809;53.262;10.408;2023-12-14T09:14:07;12.47;;;7.77;;
11504;SDS011;5809;53.262;10.408;2023-12-14T09:16:36;10.53;;;7.60;;
11504;SDS011;5809;53.262;10.408;2023-12-14T09:19:02;12.43;;;7.27;;
11504;SDS011;5809;53.262;10.408;2023-12-14T09:21:29;10.70;;;7.33;;
11504;SDS011;5809;53.262;10.408;2023-12-14T09:23:56;12.03;;;7.50;;
11504;SDS011;5809;53.262;10.408;2023-12-14T09:26:23;11.00;;;7.17;;
11504;SDS011;5809;53.262;10.408;2023-12-14T09:28:50;11.00;;;7.37;;
11504;SDS011;5809;53.262;10.408;2023-12-14T09:31:17;12.17;;;6.80;;
11504;SDS011;5809;53.262;10.408;2023-12-14T09:33:45;12.33;;;7.40;;
11504;SDS011;5809;53.262;10.408;2023-12-14T09:36:12;9.63;;;6.63;;
11504;SDS011;5809;53.262;10.408;2023-12-14T09:38:39;8.80;;;6.50;;
11504;SDS011;5809;53.262;10.408;2023-12-14T09:41:05;12.20;;;6.93;;
11504;SDS011;5809;53.262;10.408;2023-12-14T09:43:33;9.63;;;6.77;;
11504;SDS011;5809;53.262;10.408;2023-12-14T09:46:00;8.30;;;6.73;;
11504;SDS011;5809;53.262;10.408;2023-12-14T09:48:29;11.10;;;7.03;;
11504;SDS011;5809;53.262;10.408;2023-12-14T09:50:58;11.10;;;7.17;;
11504;SDS011;5809;53.262;10.408;2023-12-14T09:53:25;12.50;;;7.63;;
11504;SDS011;5809;53.262;10.408;2023-12-14T09:55:52;12.90;;;9.70;;
11504;SDS011;5809;53.262;10.408;2023-12-14T09:58:19;15.47;;;10.67;;
11504;SDS011;5809;53.262;10.408;2023-12-14T10:00:46;14.73;;;8.20;;
11504;SDS011;5809;53.262;10.408;2023-12-14T10:03:22;11.10;;;7.30;;
11504;SDS011;5809;53.262;10.408;2023-12-14T10:05:52;10.83;;;7.27;;
11504;SDS011;5809;53.262;10.408;2023-12-14T10:08:21;11.63;;;7.07;;
11504;SDS011;5809;53.262;10.408;2023-12-14T10:10:48;12.17;;;7.50;;
11504;SDS011;5809;53.262;10.408;2023-12-14T10:13:18;9.90;;;7.40;;
11504;SDS011;5809;53.262;10.408;2023-12-14T10:15:45;13.97;;;7.93;;
11504;SDS011;5809;53.262;10.408;2023-12-14T10:18:14;12.87;;;8.00;;
11504;SDS011;5809;53.262;10.408;2023-12-14T10:20:48;12.00;;;7.60;;
11504;SDS011;5809;53.262;10.408;2023-12-14T10:23:15;10.67;;;7.30;;
11504;SDS011;5809;53.262;10.408;2023-12-14T10:25:44;13.13;;;8.33;;
11504;SDS011;5809;53.262;10.408;2023-12-14T10:28:11;12.10;;;7.13;;
11504;SDS011;5809;53.262;10.408;2023-12-14T10:30:38;11.43;;;6.93;;
11504;SDS011;5809;53.262;10.408;2023-12-14T10:33:05;9.30;;;7.17;;
11504;SDS011;5809;53.262;10.408;2023-12-14T10:35:33;9.80;;;7.10;;
11504;SDS011;5809;53.262;10.408;2023-12-14T10:38:01;10.43;;;6.77;;
11504;SDS011;5809;53.262;10.408;2023-12-14T10:40:29;10.57;;;6.23;;
11504;SDS011;5809;53.262;10.408;2023-12-14T10:42:58;9.43;;;6.80;;
11504;SDS011;5809;53.262;10.408;2023-12-14T10:45:26;11.47;;;6.63;;
11504;SDS011;5809;53.262;10.408;2023-12-14T10:47:55;10.87;;;6.77;;
11504;SDS011;5809;53.262;10.408;2023-12-14T10:50:24;8.00;;;6.30;;
11504;SDS011;5809;53.262;10.408;2023-12-14T10:52:52;10.53;;;6.50;;
11504;SDS011;5809;53.262;10.408;2023-12-14T10:55:21;8.63;;;6.70;;
11504;SDS011;5809;53.262;10.408;2023-12-14T10:57:51;10.30;;;6.60;;
11504;SDS011;5809;53.262;10.408;2023-12-14T11:00:20;10.03;;;7.00;;
11504;SDS011;5809;53.262;10.408;2023-12-14T11:02:47;10.03;;;6.40;;
11504;SDS011;5809;53.262;10.408;2023-12-14T11:05:14;8.97;;;6.60;;
11504;SDS011;5809;53.262;10.408;2023-12-14T11:07:48;10.03;;;5.93;;
11504;SDS011;5809;53.262;10.408;2023-12-14T11:10:19;9.00;;;6.43;;
11504;SDS011;5809;53.262;10.408;2023-12-14T11:12:51;7.03;;;5.80;;
11504;SDS011;5809;53.262;10.408;2023-12-14T11:15:23;8.23;;;6.03;;
11504;SDS011;5809;53.262;10.408;2023-12-14T11:21:08;9.77;;;6.70;;
11504;SDS011;5809;53.262;10.408;2023-12-14T11:23:43;8.20;;;5.63;;
11504;SDS011;5809;53.262;10.408;2023-12-14T11:26:10;7.63;;;6.10;;
11504;SDS011;5809;53.262;10.408;2023-12-14T11:28:37;7.63;;;5.23;;
11504;SDS011;5809;53.262;10.408;2023-12-14T11:31:10;6.77;;;5.07;;
11504;SDS011;5809;53.262;10.408;2023-12-14T11:33:38;7.37;;;5.80;;
11504;SDS011;5809;53.262;10.408;2023-12-14T11:36:05;8.40;;;6.40;;
11504;SDS011;5809;53.262;10.408;2023-12-14T11:38:33;8.00;;;5.30;;
11504;SDS011;5809;53.262;10.408;2023-12-14T11:41:01;8.60;;;6.20;;
11504;SDS011;5809;53.262;10.408;2023-12-14T11:43:28;9.33;;;6.40;;
11504;SDS011;5809;53.262;10.408;2023-12-14T11:45:55;8.37;;;6.30;;
11504;SDS011;5809;53.262;10.408;2023-12-14T11:48:23;17.17;;;10.87;;
11504;SDS011;5809;53.262;10.408;2023-12-14T11:50:51;10.70;;;5.70;;
11504;SDS011;5809;53.262;10.408;2023-12-14T11:53:17;11.13;;;6.97;;
11504;SDS011;5809;53.262;10.408;2023-12-14T11:55:44;9.53;;;7.00;;
11504;SDS011;5809;53.262;10.408;2023-12-14T11:58:12;6.53;;;5.40;;
11504;SDS011;5809;53.262;10.408;2023-12-14T12:00:40;6.60;;;5.40;;
11504;SDS011;5809;53.262;10.408;2023-12-14T12:03:07;10.03;;;7.20;;
11504;SDS011;5809;53.262;10.408;2023-12-14T12:05:37;8.53;;;6.00;;
11504;SDS011;5809;53.262;10.408;2023-12-14T12:08:04;7.23;;;6.03;;
11504;SDS011;5809;53.262;10.408;2023-12-14T12:10:32;8.90;;;6.83;;
11504;SDS011;5809;53.262;10.408;2023-12-14T12:13:00;7.33;;;5.47;;
11504;SDS011;5809;53.262;10.408;2023-12-14T12:15:27;9.10;;;5.37;;
11504;SDS011;5809;53.262;10.408;2023-12-14T12:17:56;7.63;;;5.13;;
11504;SDS011;5809;53.262;10.408;2023-12-14T12:20:23;7.70;;;4.97;;
11504;SDS011;5809;53.262;10.408;2023-12-14T12:22:52;10.40;;;4.90;;
11504;SDS011;5809;53.262;10.408;2023-12-14T12:25:19;6.83;;;4.80;;
11504;SDS011;5809;53.262;10.408;2023-12-14T12:27:46;6.30;;;4.93;;
11504;SDS011;5809;53.262;10.408;2023-12-14T12:30:12;5.77;;;4.80;;
11504;SDS011;5809;53.262;10.408;2023-12-14T12:32:40;5.97;;;4.53;;
11504;SDS011;5809;53.262;10.408;2023-12-14T12:35:07;5.97;;;3.83;;
11504;SDS011;5809;53.262;10.408;2023-12-14T12:37:34;5.07;;;3.60;;
11504;SDS011;5809;53.262;10.408;2023-12-14T12:40:03;4.97;;;3.50;;
11504;SDS011;5809;53.262;10.408;2023-12-14T12:42:30;3.97;;;3.57;;
11504;SDS011;5809;53.262;10.408;2023-12-14T12:44:57;6.77;;;3.87;;
11504;SDS011;5809;53.262;10.408;2023-12-14T12:47:24;4.77;;;3.50;;
11504;SDS011;5809;53.262;10.408;2023-12-14T12:49:51;6.27;;;3.70;;
11504;SDS011;5809;53.262;10.408;2023-12-14T12:52:18;7.10;;;4.73;;
11504;SDS011;5809;53.262;10.408;2023-12-14T12:54:44;5.40;;;4.50;;
11504;SDS011;5809;53.262;10.408;2023-12-14T12:57:13;7.37;;;4.57;;
11504;SDS011;5809;53.262;10.408;2023-12-14T12:59:40;5.67;;;4.33;;
11504;SDS011;5809;53.262;10.408;2023-12-14T13:02:06;5.37;;;4.50;;
11504;SDS011;5809;53.262;10.408;2023-12-14T13:04:33;8.07;;;5.30;;
11504;SDS011;5809;53.262;10.408;2023-12-14T13:07:02;7.73;;;4.80;;
11504;SDS011;5809;53.262;10.408;2023-12-14T13:09:29;7.17;;;4.30;;
11504;SDS011;5809;53.262;10.408;2023-12-14T13:11:56;6.43;;;4.00;;
11504;SDS011;5809;53.262;10.408;2023-12-14T13:14:24;5.13;;;4.00;;
11504;SDS011;5809;53.262;10.408;2023-12-14T13:16:51;5.40;;;4.43;;
11504;SDS011;5809;53.262;10.408;2023-12-14T13:19:18;6.17;;;5.13;;
11504;SDS011;5809;53.262;10.408;2023-12-14T13:21:45;6.43;;;4.80;;
11504;SDS011;5809;53.262;10.408;2023-12-14T13:24:12;5.70;;;4.20;;
11504;SDS011;5809;53.262;10.408;2023-12-14T13:26:38;6.10;;;4.57;;
11504;SDS011;5809;53.262;10.408;2023-12-14T13:29:05;5.33;;;4.83;;
11504;SDS011;5809;53.262;10.408;2023-12-14T13:31:34;6.37;;;5.07;;
11504;SDS011;5809;53.262;10.408;2023-12-14T13:34:00;7.10;;;5.30;;
11504;SDS011;5809;53.262;10.408;2023-12-14T13:36:28;5.63;;;4.20;;
11504;SDS011;5809;53.262;10.408;2023-12-14T13:38:55;5.27;;;4.47;;
11504;SDS011;5809;53.262;10.408;2023-12-14T13:41:22;30.80;;;5.17;;
11504;SDS011;5809;53.262;10.408;2023-12-14T13:43:49;7.23;;;3.20;;
11504;SDS011;5809;53.262;10.408;2023-12-14T13:46:16;5.20;;;3.80;;
11504;SDS011;5809;53.262;10.408;2023-12-14T13:48:44;11.90;;;7.40;;
11504;SDS011;5809;53.262;10.408;2023-12-14T13:51:11;3.27;;;2.97;;
11504;SDS011;5809;53.262;10.408;2023-12-14T13:53:38;4.30;;;2.90;;
11504;SDS011;5809;53.262;10.408;2023-12-14T13:56:05;3.53;;;3.00;;
11504;SDS011;5809;53.262;10.408;2023-12-14T13:58:32;4.37;;;3.30;;
11504;SDS011;5809;53.262;10.408;2023-12-14T14:01:03;4.50;;;3.40;;
11504;SDS011;5809;53.262;10.408;2023-12-14T14:03:32;4.53;;;3.63;;
11504;SDS011;5809;53.262;10.408;2023-12-14T14:06:00;4.83;;;3.60;;
11504;SDS011;5809;53.262;10.408;2023-12-14T14:08:27;4.77;;;4.23;;
11504;SDS011;5809;53.262;10.408;2023-12-14T14:10:56;5.93;;;4.30;;
11504;SDS011;5809;53.262;10.408;2023-12-14T14:13:23;7.47;;;3.87;;
11504;SDS011;5809;53.262;10.408;2023-12-14T14:15:50;8.53;;;4.00;;
11504;SDS011;5809;53.262;10.408;2023-12-14T14:18:17;4.43;;;3.90;;
11504;SDS011;5809;53.262;10.408;2023-12-14T14:20:44;5.17;;;4.37;;
11504;SDS011;5809;53.262;10.408;2023-12-14T14:23:12;6.20;;;4.83;;
11504;SDS011;5809;53.262;10.408;2023-12-14T14:25:39;9.13;;;5.90;;
11504;SDS011;5809;53.262;10.408;2023-12-14T14:28:06;11.77;;;8.03;;
11504;SDS011;5809;53.262;10.408;2023-12-14T14:30:33;12.50;;;8.00;;
11504;SDS011;5809;53.262;10.408;2023-12-14T14:33:00;10.13;;;7.23;;
11504;SDS011;5809;53.262;10.408;2023-12-14T14:35:26;10.93;;;7.30;;
11504;SDS011;5809;53.262;10.408;2023-12-14T14:37:53;8.13;;;6.03;;
11504;SDS011;5809;53.262;10.408;2023-12-14T14:40:22;7.80;;;5.33;;
11504;SDS011;5809;53.262;10.408;2023-12-14T14:42:49;10.77;;;6.47;;
11504;SDS011;5809;53.262;10.408;2023-12-14T14:45:16;11.23;;;7.60;;
11504;SDS011;5809;53.262;10.408;2023-12-14T14:47:43;12.37;;;7.63;;
11504;SDS011;5809;53.262;10.408;2023-12-14T14:50:10;9.87;;;6.10;;